Columbus, WI (53925)

2:03 AM CST on December 25, 2014 (GMT -0600)
Muller Rd | Change Station
CLOSE
Current Station
Personal Weather Station
Location: Sun Prairie, WI
Elevation: 928 ft
Nearby Weather Stations

Elev 928 ft 43.25 °N, 89.13 °W | Updated 2 seconds ago

Overcast
Overcast
33.3 °F
Feels Like 25 °F
N
10.1
Wind Variable Wind from West
Gusts 15.0 mph

Today
High -- | Low -- °F
--% Chance of Precip.
Yesterday
High -- | Low -- °F
Precip. -- in
7:27 AM 4:25 PM
Waxing Crescent, 14% visible
Pressure 29.64 in
Visibility 10.0 miles
Clouds Overcast 2700 ft
Windchill 25 °F
Dew Point 32 °F
Humidity 93%
Rainfall 0.00 in
Snow Depth Not available.
UV 0 out of 12
Pollen .10 out of 12
Air Quality Not available.
Flu Activity Not available.
METAR KUNU 250735Z AUTO 26007G14KT 10SM OVC027 01/M01 A2964 RMK AO2 T00061010

More Conditions Fewer Conditions

Pressure 29.64 in
Visibility 10.0 miles
Clouds Overcast 2700 ft
Windchill 25 °F
Dew Point 32 °F
Humidity 93%
Rainfall 0.00 in
Snow Depth Not available.
UV 0 out of 12
Pollen .10 out of 12
Air Quality Not available.
Flu Activity Not available.
METAR KUNU 250735Z AUTO 26007G14KT 10SM OVC027 01/M01 A2964 RMK AO2 T00061010

More Conditions Fewer Conditions

10-Day Weather Forecast

Almanac

Astronomy

Dec. 25, 2014 Rise Set
Actual Time
Civil Twilight
Nautical Twilight
Astronomical Twilight
Moon
Length of Visible Light
Length of Day
Tomorrow will be .
, % of the Moon is Illuminated

Today's Extremes

State Highs State Lows

Community

WunderPhotos

Upload Photos

1,780,250 photos uploaded!

WunderBlogs® & News

Nearby

Air Quality

  Air Quality AQ Index Pollutant
Not available.

Snow Depth

Station Depth Elevation

Earthquake Activity

City Distance Mag. Time & Date
Minimum magnitude displayed is 2.5.

Coastal Water Temperatures

Place Temperature

Nearby Weather Stations